createdAt,value
2022-09-21T00:03:53.683Z,8.30
2022-09-21T00:08:51.621Z,8.20
2022-09-21T00:13:52.076Z,8.10
2022-09-21T00:18:49.556Z,8.20
2022-09-21T00:23:46.962Z,8.40
2022-09-21T00:28:44.820Z,8.40
2022-09-21T00:33:46.549Z,8.30
2022-09-21T00:38:44.930Z,8.20
2022-09-21T00:44:20.700Z,8.10
2022-09-21T00:49:18.650Z,8.10
2022-09-21T00:54:23.773Z,8.00
2022-09-21T00:59:22.331Z,8.20
2022-09-21T01:04:21.562Z,8.00
2022-09-21T01:09:19.387Z,7.60
2022-09-21T01:14:47.271Z,7.40
2022-09-21T01:20:02.698Z,7.60
2022-09-21T01:25:09.427Z,7.60
2022-09-21T01:30:19.612Z,7.30
2022-09-21T01:35:22.165Z,7.30
2022-09-21T01:40:35.368Z,7.40
2022-09-21T01:45:38.006Z,7.10
2022-09-21T01:50:40.675Z,7.10
2022-09-21T01:55:57.285Z,7.00
2022-09-21T02:00:57.531Z,6.80
2022-09-21T02:05:54.650Z,6.80
2022-09-21T02:10:53.590Z,6.80
2022-09-21T02:16:09.410Z,6.80
2022-09-21T02:21:16.071Z,6.70
2022-09-21T02:26:20.516Z,6.50
2022-09-21T02:31:17.917Z,6.20
2022-09-21T02:36:40.065Z,6.40
2022-09-21T02:42:04.592Z,6.20
2022-09-21T02:47:27.536Z,6.10
2022-09-21T02:52:26.615Z,6.20
2022-09-21T02:57:24.595Z,6.10
2022-09-21T03:02:21.815Z,6.30
2022-09-21T03:07:19.265Z,6.20
2022-09-21T03:12:16.491Z,5.90
2022-09-21T03:17:13.705Z,5.80
2022-09-21T03:22:11.050Z,5.90
2022-09-21T03:27:09.460Z,5.80
2022-09-21T03:32:07.188Z,5.50
2022-09-21T03:37:07.465Z,5.70
2022-09-21T03:42:05.406Z,5.50
2022-09-21T03:47:03.435Z,5.50
2022-09-21T03:52:01.180Z,5.60
2022-09-21T03:57:00.280Z,5.60
2022-09-21T04:02:00.025Z,5.50
2022-09-21T04:07:00.295Z,5.60
2022-09-21T04:11:58.105Z,5.60
2022-09-21T04:16:57.420Z,5.30
2022-09-21T04:21:56.330Z,5.20
2022-09-21T04:26:54.606Z,5.10
2022-09-21T04:31:51.970Z,4.80
2022-09-21T04:36:49.138Z,4.80
2022-09-21T04:41:46.486Z,5.00
2022-09-21T04:46:45.111Z,5.10
2022-09-21T04:51:42.896Z,5.10
2022-09-21T04:56:40.225Z,5.10
2022-09-21T05:01:37.843Z,5.20
2022-09-21T05:06:35.381Z,4.80
2022-09-21T05:11:33.705Z,5.00
2022-09-21T05:16:31.857Z,5.20
2022-09-21T05:21:29.566Z,5.30
2022-09-21T05:26:26.794Z,5.30
2022-09-21T05:31:56.081Z,5.20
2022-09-21T05:37:02.231Z,5.30
2022-09-21T05:41:59.830Z,5.60
2022-09-21T05:47:07.121Z,5.70
2022-09-21T05:52:35.614Z,5.70
2022-09-21T05:57:35.761Z,5.90
2022-09-21T06:03:02.717Z,6.10
2022-09-21T06:07:59.964Z,6.50
2022-09-21T06:12:57.662Z,6.90
2022-09-21T06:17:55.300Z,7.00
2022-09-21T06:22:52.472Z,7.30
2022-09-21T06:27:49.927Z,7.90
2022-09-21T06:32:47.206Z,8.60
2022-09-21T06:37:44.508Z,9.20
2022-09-21T06:42:41.755Z,11.40
2022-09-21T06:47:38.947Z,15.90
2022-09-21T06:52:38.238Z,17.40
2022-09-21T06:57:35.415Z,17.30
2022-09-21T07:02:32.840Z,18.20
2022-09-21T07:07:33.069Z,17.50
2022-09-21T07:12:33.535Z,17.70
2022-09-21T07:17:36.169Z,17.60
2022-09-21T07:22:33.699Z,19.70
2022-09-21T07:27:32.111Z,18.90
2022-09-21T07:32:31.115Z,20.30
2022-09-21T07:37:29.085Z,20.90
2022-09-21T07:42:28.234Z,21.90
2022-09-21T07:47:26.316Z,22.40
2022-09-21T07:52:23.527Z,22.70
2022-09-21T07:57:39.124Z,24.60
2022-09-21T08:02:36.409Z,23.00
2022-09-21T08:07:35.401Z,23.60
2022-09-21T08:12:32.578Z,22.70
2022-09-21T08:17:30.227Z,22.50
2022-09-21T08:22:27.600Z,22.80
2022-09-21T08:27:27.490Z,22.10
2022-09-21T08:32:49.509Z,23.50
2022-09-21T08:37:42.223Z,23.40
2022-09-21T08:42:50.708Z,23.30
2022-09-21T08:47:53.170Z,23.40
2022-09-21T08:52:54.573Z,24.40
2022-09-21T08:57:51.802Z,24.70
2022-09-21T09:03:16.981Z,23.30
2022-09-21T09:08:39.100Z,24.10
2022-09-21T09:14:14.325Z,24.10
2022-09-21T09:19:59.562Z,24.70
2022-09-21T09:25:03.946Z,24.00
2022-09-21T09:30:05.420Z,24.30
2022-09-21T09:35:26.550Z,24.00
2022-09-21T09:41:22.202Z,24.50
2022-09-21T09:46:45.886Z,23.40
2022-09-21T09:51:43.690Z,22.40
2022-09-21T09:56:41.958Z,23.00
2022-09-21T10:01:46.653Z,23.00
2022-09-21T10:06:46.728Z,22.90
2022-09-21T10:11:44.563Z,23.00
2022-09-21T10:16:42.496Z,21.40
2022-09-21T10:21:46.612Z,21.50
2022-09-21T10:26:56.290Z,21.90
2022-09-21T10:32:14.877Z,21.60
2022-09-21T10:37:31.391Z,21.90
2022-09-21T10:42:35.720Z,20.90
2022-09-21T10:47:37.495Z,19.70
2022-09-21T10:52:46.014Z,19.60
2022-09-21T10:57:45.720Z,19.20
2022-09-21T11:02:43.612Z,19.40
2022-09-21T11:07:55.532Z,18.60
2022-09-21T11:13:11.476Z,18.70
2022-09-21T11:18:13.206Z,18.70
2022-09-21T11:23:37.402Z,18.30
2022-09-21T11:28:52.665Z,18.30
2022-09-21T11:34:20.176Z,18.20
2022-09-21T11:39:45.372Z,17.90
2022-09-21T11:44:53.423Z,18.00
2022-09-21T11:50:26.503Z,17.90
2022-09-21T11:55:55.381Z,18.30
2022-09-21T12:00:58.314Z,18.50
2022-09-21T12:06:18.105Z,18.50
2022-09-21T12:11:29.274Z,18.40
2022-09-21T12:16:58.646Z,18.00
2022-09-21T12:22:17.607Z,18.10
2022-09-21T12:27:40.196Z,18.20
2022-09-21T12:33:06.692Z,18.00
2022-09-21T12:38:27.267Z,18.00
2022-09-21T12:43:43.574Z,17.70
2022-09-21T12:48:42.507Z,17.60
2022-09-21T12:53:49.844Z,17.60
2022-09-21T12:59:12.817Z,17.50
2022-09-21T13:04:34.600Z,17.20
2022-09-21T13:09:32.818Z,17.10
2022-09-21T13:14:34.972Z,17.30
2022-09-21T13:19:35.247Z,17.20
2022-09-21T13:24:33.594Z,17.10
2022-09-21T13:29:33.622Z,17.10
2022-09-21T13:34:51.144Z,17.40
2022-09-21T13:40:06.412Z,17.60
2022-09-21T13:45:15.575Z,18.00
2022-09-21T13:50:19.916Z,18.10
2022-09-21T13:55:38.830Z,17.80
2022-09-21T14:00:52.318Z,17.70
2022-09-21T14:06:06.755Z,17.20
2022-09-21T14:11:12.408Z,17.00
2022-09-21T14:16:37.939Z,16.90
2022-09-21T14:21:35.266Z,16.80
2022-09-21T14:26:46.515Z,16.60
2022-09-21T14:31:44.353Z,16.40
2022-09-21T14:36:45.985Z,16.60
2022-09-21T14:41:47.485Z,16.60
2022-09-21T14:46:51.067Z,16.80
2022-09-21T14:52:24.778Z,16.90
2022-09-21T14:57:43.415Z,16.80
2022-09-21T15:02:44.156Z,16.80
2022-09-21T15:08:34.217Z,16.80
2022-09-21T15:13:41.770Z,16.60
2022-09-21T15:18:42.800Z,16.50
2022-09-21T15:23:41.061Z,16.40
2022-09-21T15:29:08.493Z,16.40
2022-09-21T15:34:11.176Z,16.30
2022-09-21T15:39:25.878Z,16.10
2022-09-21T15:44:33.302Z,15.90
2022-09-21T15:49:31.136Z,15.80
2022-09-21T15:54:33.269Z,15.70
2022-09-21T15:59:31.184Z,15.70
2022-09-21T16:04:29.141Z,15.60
2022-09-21T16:09:26.350Z,15.40
2022-09-21T16:14:42.524Z,15.30
2022-09-21T16:20:26.162Z,15.20
2022-09-21T16:25:34.685Z,15.10
2022-09-21T16:30:51.427Z,14.70
2022-09-21T16:35:49.260Z,14.10
2022-09-21T16:40:47.233Z,13.70
2022-09-21T16:45:44.701Z,13.30
2022-09-21T16:50:43.398Z,13.10
2022-09-21T16:55:43.133Z,12.90
2022-09-21T17:00:42.795Z,12.70
2022-09-21T17:05:40.082Z,12.30
2022-09-21T17:10:44.370Z,12.20
2022-09-21T17:15:45.713Z,12.10
2022-09-21T17:20:44.933Z,11.90
2022-09-21T17:25:42.197Z,11.70
2022-09-21T17:30:42.019Z,11.70
2022-09-21T17:35:41.630Z,11.40
2022-09-21T17:40:39.228Z,11.30
2022-09-21T17:45:42.106Z,11.20
2022-09-21T17:50:39.460Z,10.90
2022-09-21T17:55:37.630Z,10.80
2022-09-21T18:01:09.955Z,10.70
2022-09-21T18:06:08.980Z,10.60
2022-09-21T18:11:19.399Z,10.40
2022-09-21T18:16:27.281Z,10.10
2022-09-21T18:21:28.045Z,10.10
2022-09-21T18:26:26.878Z,10.10
2022-09-21T18:31:42.353Z,10.00
2022-09-21T18:36:40.300Z,10.10
2022-09-21T18:41:48.779Z,10.00
2022-09-21T18:47:06.934Z,9.90
2022-09-21T18:52:36.851Z,9.70
2022-09-21T18:57:34.367Z,9.70
2022-09-21T19:02:31.870Z,9.60
2022-09-21T19:07:41.067Z,9.50
2022-09-21T19:12:59.246Z,9.40
2022-09-21T19:18:15.462Z,9.30
2022-09-21T19:23:53.547Z,9.20
2022-09-21T19:29:16.966Z,9.00
2022-09-21T19:34:16.716Z,8.90
2022-09-21T19:39:14.749Z,9.00
2022-09-21T19:44:36.094Z,8.80
2022-09-21T19:49:50.799Z,8.70
2022-09-21T19:55:26.539Z,8.60
2022-09-21T20:00:24.253Z,8.70
2022-09-21T20:05:31.502Z,8.50
2022-09-21T20:10:46.986Z,8.40
2022-09-21T20:16:00.965Z,8.40
2022-09-21T20:20:58.477Z,8.30
2022-09-21T20:26:25.358Z,8.30
2022-09-21T20:31:24.532Z,8.00
2022-09-21T20:36:23.050Z,8.10
2022-09-21T20:41:20.716Z,8.10
2022-09-21T20:46:17.987Z,8.10
2022-09-21T20:51:15.290Z,7.80
2022-09-21T20:56:13.118Z,7.70
2022-09-21T21:01:10.935Z,7.60
2022-09-21T21:06:18.226Z,7.50
2022-09-21T21:11:15.615Z,7.50
2022-09-21T21:16:13.245Z,7.30
2022-09-21T21:21:10.673Z,7.30
2022-09-21T21:26:08.182Z,7.30
2022-09-21T21:31:07.184Z,7.20
2022-09-21T21:36:06.726Z,7.10
2022-09-21T21:41:04.630Z,7.20
2022-09-21T21:46:02.829Z,7.00
2022-09-21T21:51:01.713Z,7.00
2022-09-21T21:56:06.904Z,6.90
2022-09-21T22:01:12.142Z,7.00
2022-09-21T22:06:10.996Z,6.70
2022-09-21T22:11:08.486Z,6.50
2022-09-21T22:16:14.862Z,6.50
2022-09-21T22:21:14.429Z,6.60
2022-09-21T22:26:15.000Z,6.30
2022-09-21T22:31:17.824Z,6.30
2022-09-21T22:36:18.115Z,6.30
2022-09-21T22:41:18.175Z,6.20
2022-09-21T22:46:18.795Z,6.10
2022-09-21T22:51:18.105Z,5.80
2022-09-21T22:56:17.195Z,6.00
2022-09-21T23:01:31.021Z,6.00
2022-09-21T23:06:32.717Z,6.10
2022-09-21T23:11:36.174Z,6.20
2022-09-21T23:16:33.817Z,6.20
2022-09-21T23:21:31.759Z,5.80
2022-09-21T23:26:32.225Z,5.60
2022-09-21T23:31:31.653Z,5.40
2022-09-21T23:36:30.847Z,5.60
2022-09-21T23:41:30.685Z,5.50
2022-09-21T23:46:32.481Z,5.50
2022-09-21T23:51:32.770Z,5.70
2022-09-21T23:56:30.496Z,5.60
